Terminal Aerodrome Forecast
Issued by NWS Omaha/Valley, NE

Home | Current Version | Previous Version | Text Only | Print | Product List | Glossary On
Versions: 1 2 3 4 5 6 7 8 9 10 11 12 13 14 15 16 17 18 19 20 21 22 23 24 25 26 27 28 29 30 31 32 33 34 35 36 37 38
000
FTUS43 KOAX 231853 AAA
TAFOMA
TAF AMD
KOMA 231853Z 2319/2418 33013G20KT P6SM VCSH SCT025 OVC050
      TEMPO 2320/2323 5SM -SHRA OVC025
     FM232300 33013KT P6SM SCT025 BKN050
     FM240700 34010KT P6SM BKN025
     FM241000 34011KT P6SM BKN009
     FM241500 34009KT P6SM SCT015=

USA.gov is the U.S. government's official web portal to all federal, state and local government web resources and services.